sensor_id;sensor_type;location;lat;lon;timestamp;temperature;humidity
56861;DHT22;42744;51.094;3.490;2023-04-28T00:00:29;9.60;99.90
56861;DHT22;42744;51.094;3.490;2023-04-28T00:02:55;9.60;99.90
56861;DHT22;42744;51.094;3.490;2023-04-28T00:05:21;9.60;99.90
56861;DHT22;42744;51.094;3.490;2023-04-28T00:07:48;9.70;99.90
56861;DHT22;42744;51.094;3.490;2023-04-28T00:10:14;9.70;99.90
56861;DHT22;42744;51.094;3.490;2023-04-28T00:12:40;9.70;99.90
56861;DHT22;42744;51.094;3.490;2023-04-28T00:15:06;9.70;99.90
56861;DHT22;42744;51.094;3.490;2023-04-28T00:17:32;9.70;99.90
56861;DHT22;42744;51.094;3.490;2023-04-28T00:19:58;9.70;99.90
56861;DHT22;42744;51.094;3.490;2023-04-28T00:22:24;9.80;99.90
56861;DHT22;42744;51.094;3.490;2023-04-28T00:24:51;9.80;99.90
56861;DHT22;42744;51.094;3.490;2023-04-28T00:27:17;9.80;99.90
56861;DHT22;42744;51.094;3.490;2023-04-28T00:29:42;9.80;99.90
56861;DHT22;42744;51.094;3.490;2023-04-28T00:32:09;9.80;99.90
56861;DHT22;42744;51.094;3.490;2023-04-28T00:34:35;9.90;99.90
56861;DHT22;42744;51.094;3.490;2023-04-28T00:37:03;9.90;99.90
56861;DHT22;42744;51.094;3.490;2023-04-28T00:39:29;9.90;99.90
56861;DHT22;42744;51.094;3.490;2023-04-28T00:41:55;9.90;99.90
56861;DHT22;42744;51.094;3.490;2023-04-28T00:44:22;9.90;99.90
56861;DHT22;42744;51.094;3.490;2023-04-28T00:46:48;9.90;99.90
56861;DHT22;42744;51.094;3.490;2023-04-28T00:49:15;9.90;99.90
56861;DHT22;42744;51.094;3.490;2023-04-28T00:51:41;9.90;99.90
56861;DHT22;42744;51.094;3.490;2023-04-28T00:54:08;9.90;99.90
56861;DHT22;42744;51.094;3.490;2023-04-28T00:56:37;9.80;99.90
56861;DHT22;42744;51.094;3.490;2023-04-28T00:59:03;9.80;99.90
56861;DHT22;42744;51.094;3.490;2023-04-28T01:01:30;9.80;99.90
56861;DHT22;42744;51.094;3.490;2023-04-28T01:03:56;9.70;99.90
56861;DHT22;42744;51.094;3.490;2023-04-28T01:06:23;9.70;99.90
56861;DHT22;42744;51.094;3.490;2023-04-28T01:08:50;9.60;99.90
56861;DHT22;42744;51.094;3.490;2023-04-28T01:11:16;9.60;99.90
56861;DHT22;42744;51.094;3.490;2023-04-28T01:13:44;9.50;99.90
56861;DHT22;42744;51.094;3.490;2023-04-28T01:16:11;9.50;99.90
56861;DHT22;42744;51.094;3.490;2023-04-28T01:18:38;9.40;99.90
56861;DHT22;42744;51.094;3.490;2023-04-28T01:21:07;9.40;99.90
56861;DHT22;42744;51.094;3.490;2023-04-28T01:23:33;9.30;99.90
56861;DHT22;42744;51.094;3.490;2023-04-28T01:25:59;9.30;99.90
56861;DHT22;42744;51.094;3.490;2023-04-28T01:28:26;9.20;99.90
56861;DHT22;42744;51.094;3.490;2023-04-28T01:30:52;9.20;99.90
56861;DHT22;42744;51.094;3.490;2023-04-28T01:33:20;9.10;99.90
56861;DHT22;42744;51.094;3.490;2023-04-28T01:35:46;9.10;99.90
56861;DHT22;42744;51.094;3.490;2023-04-28T01:38:13;9.10;99.90
56861;DHT22;42744;51.094;3.490;2023-04-28T01:40:38;9.10;99.90
56861;DHT22;42744;51.094;3.490;2023-04-28T01:43:04;9.00;99.90
56861;DHT22;42744;51.094;3.490;2023-04-28T01:45:31;9.00;99.90
56861;DHT22;42744;51.094;3.490;2023-04-28T01:47:58;9.00;99.90
56861;DHT22;42744;51.094;3.490;2023-04-28T01:50:23;9.00;99.90
56861;DHT22;42744;51.094;3.490;2023-04-28T01:52:50;9.00;99.90
56861;DHT22;42744;51.094;3.490;2023-04-28T01:55:16;9.00;99.90
56861;DHT22;42744;51.094;3.490;2023-04-28T01:57:42;9.10;99.90
56861;DHT22;42744;51.094;3.490;2023-04-28T02:00:09;9.10;99.90
56861;DHT22;42744;51.094;3.490;2023-04-28T02:02:36;9.10;99.90
56861;DHT22;42744;51.094;3.490;2023-04-28T02:05:05;9.10;99.90
56861;DHT22;42744;51.094;3.490;2023-04-28T02:07:31;9.10;99.90
56861;DHT22;42744;51.094;3.490;2023-04-28T02:09:57;9.20;99.90
56861;DHT22;42744;51.094;3.490;2023-04-28T02:12:23;9.10;99.90
56861;DHT22;42744;51.094;3.490;2023-04-28T02:14:49;9.20;99.90
56861;DHT22;42744;51.094;3.490;2023-04-28T02:17:15;9.20;99.90
56861;DHT22;42744;51.094;3.490;2023-04-28T02:19:42;9.20;99.90
56861;DHT22;42744;51.094;3.490;2023-04-28T02:22:08;9.30;99.90
56861;DHT22;42744;51.094;3.490;2023-04-28T02:24:35;9.30;99.90
56861;DHT22;42744;51.094;3.490;2023-04-28T02:27:03;9.30;99.90
56861;DHT22;42744;51.094;3.490;2023-04-28T02:29:29;9.30;99.90
56861;DHT22;42744;51.094;3.490;2023-04-28T02:31:57;9.30;99.90
56861;DHT22;42744;51.094;3.490;2023-04-28T02:34:23;9.30;99.90
56861;DHT22;42744;51.094;3.490;2023-04-28T02:36:49;9.30;99.90
56861;DHT22;42744;51.094;3.490;2023-04-28T02:39:15;9.40;99.90
56861;DHT22;42744;51.094;3.490;2023-04-28T02:41:41;9.40;99.90
56861;DHT22;42744;51.094;3.490;2023-04-28T02:44:07;9.40;99.90
56861;DHT22;42744;51.094;3.490;2023-04-28T02:46:33;9.50;99.90
56861;DHT22;42744;51.094;3.490;2023-04-28T02:48:59;9.40;99.90
56861;DHT22;42744;51.094;3.490;2023-04-28T02:51:25;9.40;99.90
56861;DHT22;42744;51.094;3.490;2023-04-28T02:53:52;9.50;99.90
56861;DHT22;42744;51.094;3.490;2023-04-28T02:56:17;9.50;99.90
56861;DHT22;42744;51.094;3.490;2023-04-28T02:58:44;9.50;99.90
56861;DHT22;42744;51.094;3.490;2023-04-28T03:01:10;9.40;99.90
56861;DHT22;42744;51.094;3.490;2023-04-28T03:03:36;9.50;99.90
56861;DHT22;42744;51.094;3.490;2023-04-28T03:06:02;9.50;99.90
56861;DHT22;42744;51.094;3.490;2023-04-28T03:08:28;9.50;99.90
56861;DHT22;42744;51.094;3.490;2023-04-28T03:10:54;9.50;99.90
56861;DHT22;42744;51.094;3.490;2023-04-28T03:13:21;9.50;99.90
56861;DHT22;42744;51.094;3.490;2023-04-28T03:15:48;9.50;99.90
56861;DHT22;42744;51.094;3.490;2023-04-28T03:18:13;9.50;99.90
56861;DHT22;42744;51.094;3.490;2023-04-28T03:20:40;9.40;99.90
56861;DHT22;42744;51.094;3.490;2023-04-28T03:23:06;9.50;99.90
56861;DHT22;42744;51.094;3.490;2023-04-28T03:25:32;9.50;99.90
56861;DHT22;42744;51.094;3.490;2023-04-28T03:27:58;9.50;99.90
56861;DHT22;42744;51.094;3.490;2023-04-28T03:30:24;9.50;99.90
56861;DHT22;42744;51.094;3.490;2023-04-28T03:32:50;9.50;99.90
56861;DHT22;42744;51.094;3.490;2023-04-28T03:35:16;9.60;99.90
56861;DHT22;42744;51.094;3.490;2023-04-28T03:37:42;9.60;99.90
56861;DHT22;42744;51.094;3.490;2023-04-28T03:40:08;9.60;99.90
56861;DHT22;42744;51.094;3.490;2023-04-28T03:42:36;9.60;99.90
56861;DHT22;42744;51.094;3.490;2023-04-28T03:45:03;9.60;99.90
56861;DHT22;42744;51.094;3.490;2023-04-28T03:47:29;9.60;99.90
56861;DHT22;42744;51.094;3.490;2023-04-28T03:49:55;9.60;99.90
56861;DHT22;42744;51.094;3.490;2023-04-28T03:52:24;9.70;99.90
56861;DHT22;42744;51.094;3.490;2023-04-28T03:54:50;9.70;99.90
56861;DHT22;42744;51.094;3.490;2023-04-28T03:57:17;9.70;99.90
56861;DHT22;42744;51.094;3.490;2023-04-28T03:59:43;9.80;99.90
56861;DHT22;42744;51.094;3.490;2023-04-28T04:02:09;9.80;99.90
56861;DHT22;42744;51.094;3.490;2023-04-28T04:04:35;9.80;99.90
56861;DHT22;42744;51.094;3.490;2023-04-28T04:07:05;9.80;99.90
56861;DHT22;42744;51.094;3.490;2023-04-28T04:09:31;9.80;99.90
56861;DHT22;42744;51.094;3.490;2023-04-28T04:11:58;9.80;99.90
56861;DHT22;42744;51.094;3.490;2023-04-28T04:14:25;9.80;99.90
56861;DHT22;42744;51.094;3.490;2023-04-28T04:16:51;9.80;99.90
56861;DHT22;42744;51.094;3.490;2023-04-28T04:19:18;9.90;99.90
56861;DHT22;42744;51.094;3.490;2023-04-28T04:21:44;9.90;99.90
56861;DHT22;42744;51.094;3.490;2023-04-28T04:24:11;9.90;99.90
56861;DHT22;42744;51.094;3.490;2023-04-28T04:26:37;9.90;99.90
56861;DHT22;42744;51.094;3.490;2023-04-28T04:29:05;9.90;99.90
56861;DHT22;42744;51.094;3.490;2023-04-28T04:31:31;9.90;99.90
56861;DHT22;42744;51.094;3.490;2023-04-28T04:33:57;10.00;99.90
56861;DHT22;42744;51.094;3.490;2023-04-28T04:36:23;10.00;99.90
56861;DHT22;42744;51.094;3.490;2023-04-28T04:38:49;10.00;99.90
56861;DHT22;42744;51.094;3.490;2023-04-28T04:41:17;10.00;99.90
56861;DHT22;42744;51.094;3.490;2023-04-28T04:43:45;10.00;99.90
56861;DHT22;42744;51.094;3.490;2023-04-28T04:46:12;10.10;99.90
56861;DHT22;42744;51.094;3.490;2023-04-28T04:48:38;10.10;99.90
56861;DHT22;42744;51.094;3.490;2023-04-28T04:51:04;10.10;99.90
56861;DHT22;42744;51.094;3.490;2023-04-28T04:53:30;10.10;99.90
56861;DHT22;42744;51.094;3.490;2023-04-28T04:55:57;10.20;99.90
56861;DHT22;42744;51.094;3.490;2023-04-28T04:58:24;10.20;99.90
56861;DHT22;42744;51.094;3.490;2023-04-28T05:00:52;10.30;99.90
56861;DHT22;42744;51.094;3.490;2023-04-28T05:03:19;10.30;99.90
56861;DHT22;42744;51.094;3.490;2023-04-28T05:05:45;10.40;99.90
56861;DHT22;42744;51.094;3.490;2023-04-28T05:08:11;10.50;99.90
56861;DHT22;42744;51.094;3.490;2023-04-28T05:10:37;10.50;99.90
56861;DHT22;42744;51.094;3.490;2023-04-28T05:13:03;10.60;99.90
56861;DHT22;42744;51.094;3.490;2023-04-28T05:15:29;10.60;99.90
56861;DHT22;42744;51.094;3.490;2023-04-28T05:17:58;10.70;99.90
56861;DHT22;42744;51.094;3.490;2023-04-28T05:20:24;10.80;99.90
56861;DHT22;42744;51.094;3.490;2023-04-28T05:22:50;10.90;99.90
56861;DHT22;42744;51.094;3.490;2023-04-28T05:25:17;11.00;99.90
56861;DHT22;42744;51.094;3.490;2023-04-28T05:27:43;11.10;99.90
56861;DHT22;42744;51.094;3.490;2023-04-28T05:30:09;11.10;99.90
56861;DHT22;42744;51.094;3.490;2023-04-28T05:32:36;11.20;99.90
56861;DHT22;42744;51.094;3.490;2023-04-28T05:35:02;11.20;99.90
56861;DHT22;42744;51.094;3.490;2023-04-28T05:37:28;11.30;99.90
56861;DHT22;42744;51.094;3.490;2023-04-28T05:39:54;11.40;99.90
56861;DHT22;42744;51.094;3.490;2023-04-28T05:42:20;11.40;99.90
56861;DHT22;42744;51.094;3.490;2023-04-28T05:44:46;11.50;99.90
56861;DHT22;42744;51.094;3.490;2023-04-28T05:47:12;11.50;99.90
56861;DHT22;42744;51.094;3.490;2023-04-28T05:49:39;11.60;99.90
56861;DHT22;42744;51.094;3.490;2023-04-28T05:52:05;11.70;99.90
56861;DHT22;42744;51.094;3.490;2023-04-28T05:54:31;11.90;99.90
56861;DHT22;42744;51.094;3.490;2023-04-28T05:56:59;12.00;99.90
56861;DHT22;42744;51.094;3.490;2023-04-28T05:59:27;12.10;99.90
56861;DHT22;42744;51.094;3.490;2023-04-28T06:01:56;12.20;99.90
56861;DHT22;42744;51.094;3.490;2023-04-28T06:04:23;12.30;99.90
56861;DHT22;42744;51.094;3.490;2023-04-28T06:06:49;12.40;99.90
56861;DHT22;42744;51.094;3.490;2023-04-28T06:09:15;12.50;99.90
56861;DHT22;42744;51.094;3.490;2023-04-28T06:11:42;12.60;99.90
56861;DHT22;42744;51.094;3.490;2023-04-28T06:14:07;12.70;99.90
56861;DHT22;42744;51.094;3.490;2023-04-28T06:16:33;12.80;99.90
56861;DHT22;42744;51.094;3.490;2023-04-28T06:19:00;12.80;99.90
56861;DHT22;42744;51.094;3.490;2023-04-28T06:21:27;12.90;99.90
56861;DHT22;42744;51.094;3.490;2023-04-28T06:23:53;12.90;99.90
56861;DHT22;42744;51.094;3.490;2023-04-28T06:26:20;13.00;99.90
56861;DHT22;42744;51.094;3.490;2023-04-28T06:28:46;13.10;99.90
56861;DHT22;42744;51.094;3.490;2023-04-28T06:31:12;13.10;99.90
56861;DHT22;42744;51.094;3.490;2023-04-28T06:33:38;13.20;99.90
56861;DHT22;42744;51.094;3.490;2023-04-28T06:36:05;13.20;99.90
56861;DHT22;42744;51.094;3.490;2023-04-28T06:38:31;13.20;99.90
56861;DHT22;42744;51.094;3.490;2023-04-28T06:40:57;13.30;99.90
56861;DHT22;42744;51.094;3.490;2023-04-28T06:43:24;13.40;99.90
56861;DHT22;42744;51.094;3.490;2023-04-28T06:45:52;13.30;99.90
56861;DHT22;42744;51.094;3.490;2023-04-28T06:48:19;13.40;99.90
56861;DHT22;42744;51.094;3.490;2023-04-28T06:50:44;13.40;99.90
56861;DHT22;42744;51.094;3.490;2023-04-28T06:53:10;13.40;99.90
56861;DHT22;42744;51.094;3.490;2023-04-28T06:55:36;13.50;99.90
56861;DHT22;42744;51.094;3.490;2023-04-28T06:58:02;13.50;99.90
56861;DHT22;42744;51.094;3.490;2023-04-28T07:00:28;13.50;99.90
56861;DHT22;42744;51.094;3.490;2023-04-28T07:02:54;13.50;99.90
56861;DHT22;42744;51.094;3.490;2023-04-28T07:05:20;13.50;99.90
56861;DHT22;42744;51.094;3.490;2023-04-28T07:07:46;13.50;99.90
56861;DHT22;42744;51.094;3.490;2023-04-28T07:10:12;13.50;99.90
56861;DHT22;42744;51.094;3.490;2023-04-28T07:12:40;13.50;99.90
56861;DHT22;42744;51.094;3.490;2023-04-28T07:15:06;13.50;99.90
56861;DHT22;42744;51.094;3.490;2023-04-28T07:17:32;13.50;99.90
56861;DHT22;42744;51.094;3.490;2023-04-28T07:19:58;13.50;99.90
56861;DHT22;42744;51.094;3.490;2023-04-28T07:22:24;13.60;99.90
56861;DHT22;42744;51.094;3.490;2023-04-28T07:24:51;13.60;99.90
56861;DHT22;42744;51.094;3.490;2023-04-28T07:27:17;13.60;99.90
56861;DHT22;42744;51.094;3.490;2023-04-28T07:29:43;13.60;99.90
56861;DHT22;42744;51.094;3.490;2023-04-28T07:32:09;13.60;99.90
56861;DHT22;42744;51.094;3.490;2023-04-28T07:34:36;13.60;99.90
56861;DHT22;42744;51.094;3.490;2023-04-28T07:37:03;13.60;99.90
56861;DHT22;42744;51.094;3.490;2023-04-28T07:39:32;13.70;99.90
56861;DHT22;42744;51.094;3.490;2023-04-28T07:42:00;13.70;99.90
56861;DHT22;42744;51.094;3.490;2023-04-28T07:44:28;13.70;99.90
56861;DHT22;42744;51.094;3.490;2023-04-28T07:46:55;13.80;99.90
56861;DHT22;42744;51.094;3.490;2023-04-28T07:49:21;13.80;99.90
56861;DHT22;42744;51.094;3.490;2023-04-28T07:51:47;13.90;99.90
56861;DHT22;42744;51.094;3.490;2023-04-28T07:54:14;13.90;99.90
56861;DHT22;42744;51.094;3.490;2023-04-28T07:56:40;13.90;99.90
56861;DHT22;42744;51.094;3.490;2023-04-28T07:59:06;13.90;99.90
56861;DHT22;42744;51.094;3.490;2023-04-28T08:01:32;13.90;99.90
56861;DHT22;42744;51.094;3.490;2023-04-28T08:03:58;13.90;99.90
56861;DHT22;42744;51.094;3.490;2023-04-28T08:06:24;13.90;99.90
56861;DHT22;42744;51.094;3.490;2023-04-28T08:08:50;13.90;99.90
56861;DHT22;42744;51.094;3.490;2023-04-28T08:11:16;13.90;99.90
56861;DHT22;42744;51.094;3.490;2023-04-28T08:13:42;14.00;99.90
56861;DHT22;42744;51.094;3.490;2023-04-28T08:16:08;14.10;99.90
56861;DHT22;42744;51.094;3.490;2023-04-28T08:18:34;14.20;99.90
56861;DHT22;42744;51.094;3.490;2023-04-28T08:21:00;14.20;99.90
56861;DHT22;42744;51.094;3.490;2023-04-28T08:23:26;14.30;99.90
56861;DHT22;42744;51.094;3.490;2023-04-28T08:25:55;14.30;99.90
56861;DHT22;42744;51.094;3.490;2023-04-28T08:28:21;14.30;99.90
56861;DHT22;42744;51.094;3.490;2023-04-28T08:30:47;14.30;99.90
56861;DHT22;42744;51.094;3.490;2023-04-28T08:33:13;14.30;99.90
56861;DHT22;42744;51.094;3.490;2023-04-28T08:35:39;14.30;99.90
56861;DHT22;42744;51.094;3.490;2023-04-28T08:38:05;14.30;99.90
56861;DHT22;42744;51.094;3.490;2023-04-28T08:40:33;14.30;99.90
56861;DHT22;42744;51.094;3.490;2023-04-28T08:42:59;14.20;99.90
56861;DHT22;42744;51.094;3.490;2023-04-28T08:45:25;14.30;99.90
56861;DHT22;42744;51.094;3.490;2023-04-28T08:47:53;14.20;99.90
56861;DHT22;42744;51.094;3.490;2023-04-28T08:50:21;14.20;99.90
56861;DHT22;42744;51.094;3.490;2023-04-28T08:52:47;14.20;99.90
56861;DHT22;42744;51.094;3.490;2023-04-28T08:55:17;14.20;99.90
56861;DHT22;42744;51.094;3.490;2023-04-28T08:57:45;14.20;99.90
56861;DHT22;42744;51.094;3.490;2023-04-28T09:00:13;14.10;99.90
56861;DHT22;42744;51.094;3.490;2023-04-28T09:02:39;14.10;99.90
56861;DHT22;42744;51.094;3.490;2023-04-28T09:05:12;14.00;99.90
56861;DHT22;42744;51.094;3.490;2023-04-28T09:07:39;14.00;99.90
56861;DHT22;42744;51.094;3.490;2023-04-28T09:10:16;13.90;99.90
56861;DHT22;42744;51.094;3.490;2023-04-28T09:12:45;13.80;99.90
56861;DHT22;42744;51.094;3.490;2023-04-28T09:15:31;13.80;99.90
56861;DHT22;42744;51.094;3.490;2023-04-28T09:18:04;13.70;99.90
56861;DHT22;42744;51.094;3.490;2023-04-28T09:20:32;13.80;99.90
56861;DHT22;42744;51.094;3.490;2023-04-28T09:23:30;13.70;99.90
56861;DHT22;42744;51.094;3.490;2023-04-28T09:26:04;13.70;99.90
56861;DHT22;42744;51.094;3.490;2023-04-28T09:28:35;13.70;99.90
56861;DHT22;42744;51.094;3.490;2023-04-28T09:31:01;13.70;99.90
56861;DHT22;42744;51.094;3.490;2023-04-28T09:33:27;13.80;99.90
56861;DHT22;42744;51.094;3.490;2023-04-28T09:35:53;13.80;99.90
56861;DHT22;42744;51.094;3.490;2023-04-28T09:38:20;13.80;99.90
56861;DHT22;42744;51.094;3.490;2023-04-28T09:40:57;13.70;99.90
56861;DHT22;42744;51.094;3.490;2023-04-28T09:43:28;13.70;99.90
56861;DHT22;42744;51.094;3.490;2023-04-28T09:45:56;13.60;99.90
56861;DHT22;42744;51.094;3.490;2023-04-28T09:48:36;13.70;99.90
56861;DHT22;42744;51.094;3.490;2023-04-28T09:51:04;13.70;99.90
56861;DHT22;42744;51.094;3.490;2023-04-28T09:53:31;13.70;99.90
56861;DHT22;42744;51.094;3.490;2023-04-28T09:55:59;13.70;99.90
56861;DHT22;42744;51.094;3.490;2023-04-28T09:58:28;13.80;99.90
56861;DHT22;42744;51.094;3.490;2023-04-28T10:00:56;13.80;99.90
56861;DHT22;42744;51.094;3.490;2023-04-28T10:03:24;13.90;99.90
56861;DHT22;42744;51.094;3.490;2023-04-28T10:05:51;14.00;99.90
56861;DHT22;42744;51.094;3.490;2023-04-28T10:08:22;13.90;99.90
56861;DHT22;42744;51.094;3.490;2023-04-28T10:10:49;14.00;99.90
56861;DHT22;42744;51.094;3.490;2023-04-28T10:13:16;14.00;99.90
56861;DHT22;42744;51.094;3.490;2023-04-28T10:15:42;14.00;99.90
56861;DHT22;42744;51.094;3.490;2023-04-28T10:18:11;14.10;99.90
56861;DHT22;42744;51.094;3.490;2023-04-28T10:20:38;14.20;99.90
56861;DHT22;42744;51.094;3.490;2023-04-28T10:23:30;14.20;99.90
56861;DHT22;42744;51.094;3.490;2023-04-28T10:26:03;14.20;99.90
56861;DHT22;42744;51.094;3.490;2023-04-28T10:28:33;14.20;99.90
56861;DHT22;42744;51.094;3.490;2023-04-28T10:31:14;14.20;99.90
56861;DHT22;42744;51.094;3.490;2023-04-28T10:33:41;14.30;99.90
56861;DHT22;42744;51.094;3.490;2023-04-28T10:36:07;14.30;99.90
56861;DHT22;42744;51.094;3.490;2023-04-28T10:38:34;14.30;99.90
56861;DHT22;42744;51.094;3.490;2023-04-28T10:41:01;14.30;99.90
56861;DHT22;42744;51.094;3.490;2023-04-28T10:56:12;14.70;99.90
56861;DHT22;42744;51.094;3.490;2023-04-28T10:58:42;14.70;99.90
56861;DHT22;42744;51.094;3.490;2023-04-28T11:06:40;15.90;99.90
56861;DHT22;42744;51.094;3.490;2023-04-28T11:14:35;16.90;99.90
56861;DHT22;42744;51.094;3.490;2023-04-28T11:17:05;16.70;99.90
56861;DHT22;42744;51.094;3.490;2023-04-28T11:19:39;16.50;99.90
56861;DHT22;42744;51.094;3.490;2023-04-28T11:22:13;16.30;99.90
56861;DHT22;42744;51.094;3.490;2023-04-28T11:24:40;16.10;99.90
56861;DHT22;42744;51.094;3.490;2023-04-28T11:27:06;16.00;99.90
56861;DHT22;42744;51.094;3.490;2023-04-28T11:29:38;15.80;99.90
56861;DHT22;42744;51.094;3.490;2023-04-28T11:32:06;15.70;99.90
56861;DHT22;42744;51.094;3.490;2023-04-28T11:34:32;15.80;99.90
56861;DHT22;42744;51.094;3.490;2023-04-28T11:36:59;15.80;99.90
56861;DHT22;42744;51.094;3.490;2023-04-28T11:39:29;15.80;99.90
56861;DHT22;42744;51.094;3.490;2023-04-28T11:41:57;15.70;99.90
56861;DHT22;42744;51.094;3.490;2023-04-28T11:44:26;15.70;99.90
56861;DHT22;42744;51.094;3.490;2023-04-28T11:46:57;15.70;99.90
56861;DHT22;42744;51.094;3.490;2023-04-28T11:49:31;15.70;99.90
56861;DHT22;42744;51.094;3.490;2023-04-28T11:52:07;15.80;99.90
56861;DHT22;42744;51.094;3.490;2023-04-28T11:54:33;15.80;99.90
56861;DHT22;42744;51.094;3.490;2023-04-28T11:57:00;15.80;99.90
56861;DHT22;42744;51.094;3.490;2023-04-28T11:59:33;15.70;99.90
56861;DHT22;42744;51.094;3.490;2023-04-28T12:02:05;15.70;99.90
56861;DHT22;42744;51.094;3.490;2023-04-28T12:04:33;15.70;99.90
56861;DHT22;42744;51.094;3.490;2023-04-28T12:07:10;15.70;99.90
56861;DHT22;42744;51.094;3.490;2023-04-28T12:09:39;15.80;99.90
56861;DHT22;42744;51.094;3.490;2023-04-28T12:12:27;15.80;99.90
56861;DHT22;42744;51.094;3.490;2023-04-28T12:14:58;15.80;99.90
56861;DHT22;42744;51.094;3.490;2023-04-28T12:17:30;15.90;99.90
56861;DHT22;42744;51.094;3.490;2023-04-28T12:20:02;16.00;99.90
56861;DHT22;42744;51.094;3.490;2023-04-28T12:22:28;16.20;99.90
56861;DHT22;42744;51.094;3.490;2023-04-28T12:25:11;16.10;99.90
56861;DHT22;42744;51.094;3.490;2023-04-28T12:27:39;16.00;99.90
56861;DHT22;42744;51.094;3.490;2023-04-28T12:30:24;16.00;99.90
56861;DHT22;42744;51.094;3.490;2023-04-28T12:32:50;16.00;99.90
56861;DHT22;42744;51.094;3.490;2023-04-28T12:35:16;16.00;99.90
56861;DHT22;42744;51.094;3.490;2023-04-28T12:37:45;16.10;99.90
56861;DHT22;42744;51.094;3.490;2023-04-28T12:40:11;16.20;99.90
56861;DHT22;42744;51.094;3.490;2023-04-28T12:42:39;16.30;99.90
56861;DHT22;42744;51.094;3.490;2023-04-28T12:45:06;16.40;99.90
56861;DHT22;42744;51.094;3.490;2023-04-28T12:47:32;16.70;99.90
56861;DHT22;42744;51.094;3.490;2023-04-28T12:49:58;16.90;99.90
56861;DHT22;42744;51.094;3.490;2023-04-28T12:52:25;17.10;99.90
56861;DHT22;42744;51.094;3.490;2023-04-28T12:54:51;17.10;99.90
56861;DHT22;42744;51.094;3.490;2023-04-28T12:57:18;17.00;99.90
56861;DHT22;42744;51.094;3.490;2023-04-28T12:59:45;16.90;99.90
56861;DHT22;42744;51.094;3.490;2023-04-28T13:02:15;16.70;99.90
56861;DHT22;42744;51.094;3.490;2023-04-28T13:04:41;16.70;99.90
56861;DHT22;42744;51.094;3.490;2023-04-28T13:07:07;16.80;99.90
56861;DHT22;42744;51.094;3.490;2023-04-28T13:09:33;16.90;99.90
56861;DHT22;42744;51.094;3.490;2023-04-28T13:11:59;17.10;99.90
56861;DHT22;42744;51.094;3.490;2023-04-28T13:14:27;17.30;99.90
56861;DHT22;42744;51.094;3.490;2023-04-28T13:16:54;17.50;99.90
56861;DHT22;42744;51.094;3.490;2023-04-28T13:19:20;17.70;99.90
56861;DHT22;42744;51.094;3.490;2023-04-28T13:21:45;17.70;99.90
56861;DHT22;42744;51.094;3.490;2023-04-28T13:24:12;17.60;99.90
56861;DHT22;42744;51.094;3.490;2023-04-28T13:26:41;17.50;99.90
56861;DHT22;42744;51.094;3.490;2023-04-28T13:29:09;17.40;99.90
56861;DHT22;42744;51.094;3.490;2023-04-28T13:31:36;17.30;99.90
56861;DHT22;42744;51.094;3.490;2023-04-28T13:34:02;17.20;99.90
56861;DHT22;42744;51.094;3.490;2023-04-28T13:36:30;17.10;99.90
56861;DHT22;42744;51.094;3.490;2023-04-28T13:38:58;17.00;99.90
56861;DHT22;42744;51.094;3.490;2023-04-28T13:41:24;16.90;99.90
56861;DHT22;42744;51.094;3.490;2023-04-28T13:43:50;16.90;99.90
56861;DHT22;42744;51.094;3.490;2023-04-28T13:46:16;16.80;99.90
56861;DHT22;42744;51.094;3.490;2023-04-28T13:48:42;16.90;99.90
56861;DHT22;42744;51.094;3.490;2023-04-28T13:51:08;17.00;99.90
56861;DHT22;42744;51.094;3.490;2023-04-28T13:53:35;17.10;99.90
56861;DHT22;42744;51.094;3.490;2023-04-28T13:56:05;17.10;99.90
56861;DHT22;42744;51.094;3.490;2023-04-28T13:58:31;17.20;99.90
56861;DHT22;42744;51.094;3.490;2023-04-28T14:00:58;17.10;99.90
56861;DHT22;42744;51.094;3.490;2023-04-28T14:03:25;16.90;99.90
56861;DHT22;42744;51.094;3.490;2023-04-28T14:05:55;17.00;99.90
56861;DHT22;42744;51.094;3.490;2023-04-28T14:08:22;17.00;99.90
56861;DHT22;42744;51.094;3.490;2023-04-28T14:10:49;16.90;99.90
56861;DHT22;42744;51.094;3.490;2023-04-28T14:13:16;16.90;99.90
56861;DHT22;42744;51.094;3.490;2023-04-28T14:15:42;16.90;99.90
56861;DHT22;42744;51.094;3.490;2023-04-28T14:18:10;16.90;99.90
56861;DHT22;42744;51.094;3.490;2023-04-28T14:20:36;16.80;99.90
56861;DHT22;42744;51.094;3.490;2023-04-28T14:23:02;16.60;99.90
56861;DHT22;42744;51.094;3.490;2023-04-28T14:25:28;16.50;99.90
56861;DHT22;42744;51.094;3.490;2023-04-28T14:27:54;16.50;99.90
56861;DHT22;42744;51.094;3.490;2023-04-28T14:30:21;16.40;99.90
56861;DHT22;42744;51.094;3.490;2023-04-28T14:32:48;16.30;99.90
56861;DHT22;42744;51.094;3.490;2023-04-28T14:35:14;16.30;99.90
56861;DHT22;42744;51.094;3.490;2023-04-28T14:37:41;16.30;99.90
56861;DHT22;42744;51.094;3.490;2023-04-28T14:40:08;16.30;99.90
56861;DHT22;42744;51.094;3.490;2023-04-28T14:42:35;16.30;99.90
56861;DHT22;42744;51.094;3.490;2023-04-28T14:45:02;16.40;99.90
56861;DHT22;42744;51.094;3.490;2023-04-28T14:47:29;16.40;99.90
56861;DHT22;42744;51.094;3.490;2023-04-28T14:49:55;16.30;99.90
56861;DHT22;42744;51.094;3.490;2023-04-28T14:52:23;16.20;99.90
56861;DHT22;42744;51.094;3.490;2023-04-28T14:54:54;16.20;99.90
56861;DHT22;42744;51.094;3.490;2023-04-28T14:57:21;16.20;99.90
56861;DHT22;42744;51.094;3.490;2023-04-28T14:59:47;16.30;99.90
56861;DHT22;42744;51.094;3.490;2023-04-28T15:02:13;16.40;99.90
56861;DHT22;42744;51.094;3.490;2023-04-28T15:04:39;16.50;99.90
56861;DHT22;42744;51.094;3.490;2023-04-28T15:07:06;16.40;99.90
56861;DHT22;42744;51.094;3.490;2023-04-28T15:09:35;16.30;99.90
56861;DHT22;42744;51.094;3.490;2023-04-28T15:12:01;16.30;99.90
56861;DHT22;42744;51.094;3.490;2023-04-28T15:14:28;16.20;99.90
56861;DHT22;42744;51.094;3.490;2023-04-28T15:16:54;16.20;99.90
56861;DHT22;42744;51.094;3.490;2023-04-28T15:19:20;16.20;99.90
56861;DHT22;42744;51.094;3.490;2023-04-28T15:21:46;16.10;99.90
56861;DHT22;42744;51.094;3.490;2023-04-28T15:24:14;16.10;99.90
56861;DHT22;42744;51.094;3.490;2023-04-28T15:26:40;16.00;99.90
56861;DHT22;42744;51.094;3.490;2023-04-28T15:29:08;15.90;99.90
56861;DHT22;42744;51.094;3.490;2023-04-28T15:31:34;15.80;99.90
56861;DHT22;42744;51.094;3.490;2023-04-28T15:34:00;15.80;99.90
56861;DHT22;42744;51.094;3.490;2023-04-28T15:36:26;15.70;99.90
56861;DHT22;42744;51.094;3.490;2023-04-28T15:38:53;15.70;99.90
56861;DHT22;42744;51.094;3.490;2023-04-28T15:41:21;15.70;99.90
56861;DHT22;42744;51.094;3.490;2023-04-28T15:43:46;15.70;99.90
56861;DHT22;42744;51.094;3.490;2023-04-28T15:46:14;15.70;99.90
56861;DHT22;42744;51.094;3.490;2023-04-28T15:48:42;15.70;99.90
56861;DHT22;42744;51.094;3.490;2023-04-28T15:51:09;15.60;99.90
56861;DHT22;42744;51.094;3.490;2023-04-28T15:53:36;15.60;99.90
56861;DHT22;42744;51.094;3.490;2023-04-28T15:56:03;15.60;99.90
56861;DHT22;42744;51.094;3.490;2023-04-28T15:58:29;15.50;99.90